createdAt,value
2023-05-19T00:00:49.004Z,25.33
2023-05-19T00:04:07.904Z,25.93
2023-05-19T00:07:12.441Z,25.62
2023-05-19T00:10:17.379Z,25.27
2023-05-19T00:13:22.625Z,24.31
2023-05-19T00:16:29.468Z,24.60
2023-05-19T00:19:34.061Z,24.74
2023-05-19T00:22:38.148Z,25.11
2023-05-19T00:25:42.380Z,25.33
2023-05-19T00:28:46.786Z,25.54
2023-05-19T00:31:51.190Z,25.54
2023-05-19T00:34:55.229Z,26.11
2023-05-19T00:37:59.281Z,25.91
2023-05-19T00:41:05.303Z,26.15
2023-05-19T00:44:09.692Z,26.84
2023-05-19T00:47:13.730Z,26.58
2023-05-19T00:50:18.021Z,27.15
2023-05-19T00:53:23.008Z,27.81
2023-05-19T00:56:28.190Z,28.15
2023-05-19T00:59:32.733Z,28.60
2023-05-19T01:02:38.908Z,28.58
2023-05-19T01:05:45.570Z,28.35
2023-05-19T01:08:49.776Z,28.19
2023-05-19T01:11:54.353Z,28.77
2023-05-19T01:15:00.342Z,29.16
2023-05-19T01:18:13.245Z,28.52
2023-05-19T01:21:45.601Z,29.17
2023-05-19T01:25:08.067Z,29.70
2023-05-19T01:28:45.751Z,30.30
2023-05-19T01:31:51.321Z,28.79
2023-05-19T01:34:58.360Z,29.23
2023-05-19T01:38:04.355Z,29.93
2023-05-19T01:41:09.373Z,28.91
2023-05-19T01:44:13.322Z,30.11
2023-05-19T01:47:17.633Z,29.79
2023-05-19T01:50:22.029Z,30.22
2023-05-19T01:53:27.304Z,29.41
2023-05-19T01:56:47.496Z,28.91
2023-05-19T02:00:13.648Z,29.24
2023-05-19T02:03:54.589Z,29.70
2023-05-19T02:07:18.492Z,28.86
2023-05-19T02:10:32.992Z,28.89
2023-05-19T02:13:41.884Z,28.06
2023-05-19T02:16:49.303Z,27.93
2023-05-19T02:19:54.588Z,28.64
2023-05-19T02:22:59.198Z,27.94
2023-05-19T02:26:03.775Z,27.93
2023-05-19T02:29:09.925Z,27.72
2023-05-19T02:32:14.664Z,27.94
2023-05-19T02:35:19.117Z,28.12
2023-05-19T02:38:23.190Z,27.70
2023-05-19T02:41:27.486Z,27.74
2023-05-19T02:44:31.833Z,27.80
2023-05-19T02:47:37.222Z,27.00
2023-05-19T02:50:41.486Z,27.03
2023-05-19T02:53:45.494Z,26.84
2023-05-19T02:56:49.671Z,25.92
2023-05-19T02:59:53.746Z,26.84
2023-05-19T03:03:03.440Z,26.57
2023-05-19T03:06:09.595Z,25.76
2023-05-19T03:09:17.219Z,26.36
2023-05-19T03:12:21.644Z,25.97
2023-05-19T03:15:25.721Z,25.94
2023-05-19T03:18:30.075Z,25.04
2023-05-19T03:21:35.335Z,25.19
2023-05-19T03:24:40.457Z,25.26
2023-05-19T03:27:45.065Z,25.87
2023-05-19T03:30:51.577Z,26.20
2023-05-19T03:41:40.775Z,25.51
2023-05-19T03:44:47.089Z,26.03
2023-05-19T03:47:51.398Z,25.82
2023-05-19T03:51:21.957Z,25.77
2023-05-19T03:54:28.708Z,25.10
2023-05-19T03:57:34.520Z,25.59
2023-05-19T04:00:38.711Z,26.18
2023-05-19T04:03:50.619Z,25.46
2023-05-19T04:06:55.079Z,25.90
2023-05-19T04:09:59.117Z,25.90
2023-05-19T04:13:07.968Z,25.64
2023-05-19T04:16:15.230Z,25.74
2023-05-19T04:19:19.750Z,25.39
2023-05-19T04:22:25.537Z,25.51
2023-05-19T04:25:30.073Z,25.56
2023-05-19T04:28:39.702Z,25.43
2023-05-19T04:31:47.069Z,25.37
2023-05-19T04:34:51.324Z,25.69
2023-05-19T04:38:00.909Z,25.32
2023-05-19T04:41:11.658Z,25.40
2023-05-19T04:44:18.990Z,25.23
2023-05-19T04:47:29.015Z,25.39
2023-05-19T04:50:33.779Z,25.54
2023-05-19T04:53:37.738Z,25.60
2023-05-19T04:56:44.678Z,25.52
2023-05-19T04:59:48.711Z,25.55
2023-05-19T05:02:52.935Z,25.30
2023-05-19T05:05:59.540Z,24.91
2023-05-19T05:09:05.243Z,24.68
2023-05-19T05:12:10.029Z,24.51
2023-05-19T05:15:16.936Z,24.99
2023-05-19T05:18:25.268Z,25.13
2023-05-19T05:21:30.682Z,25.45
2023-05-19T05:24:35.889Z,25.51
2023-05-19T05:27:43.643Z,25.50
2023-05-19T05:30:48.096Z,25.60
2023-05-19T05:33:52.296Z,25.54
2023-05-19T05:37:00.217Z,25.26
2023-05-19T05:40:08.028Z,24.98
2023-05-19T05:43:12.960Z,24.46
2023-05-19T05:46:23.267Z,24.21
2023-05-19T05:49:27.519Z,24.41
2023-05-19T05:52:33.624Z,24.09
2023-05-19T05:55:38.183Z,24.10
2023-05-19T05:58:43.556Z,23.76
2023-05-19T06:01:47.715Z,23.50
2023-05-19T06:04:55.104Z,23.67
2023-05-19T06:07:59.508Z,23.70
2023-05-19T06:11:09.985Z,23.64
2023-05-19T06:14:16.445Z,23.61
2023-05-19T06:17:39.456Z,23.45
2023-05-19T06:20:43.570Z,23.69
2023-05-19T06:23:47.715Z,24.02
2023-05-19T06:26:52.001Z,24.13
2023-05-19T06:29:56.599Z,24.22
2023-05-19T06:33:02.542Z,24.39
2023-05-19T06:36:09.367Z,24.08
2023-05-19T06:39:15.169Z,24.23
2023-05-19T06:42:23.283Z,24.10
2023-05-19T06:45:34.911Z,23.82
2023-05-19T06:48:40.787Z,23.88
2023-05-19T06:51:45.325Z,23.61
2023-05-19T06:54:50.547Z,23.53
2023-05-19T06:57:54.877Z,23.23
2023-05-19T07:00:59.012Z,23.40
2023-05-19T07:04:07.823Z,23.31
2023-05-19T07:07:11.939Z,23.19
2023-05-19T07:10:16.804Z,23.12
2023-05-19T07:13:25.338Z,23.14
2023-05-19T07:16:31.476Z,22.95
2023-05-19T07:19:36.517Z,23.11
2023-05-19T07:22:43.424Z,22.97
2023-05-19T07:25:47.391Z,23.04
2023-05-19T07:28:52.667Z,22.98
2023-05-19T07:31:58.780Z,23.04
2023-05-19T07:35:02.835Z,22.98
2023-05-19T07:38:08.433Z,23.04
2023-05-19T07:41:12.438Z,22.94
2023-05-19T07:44:17.007Z,23.16
2023-05-19T07:47:21.906Z,23.02
2023-05-19T07:50:26.462Z,23.05
2023-05-19T07:53:30.655Z,22.98
2023-05-19T07:56:34.690Z,23.04
2023-05-19T07:59:46.170Z,22.84
2023-05-19T08:02:50.216Z,22.66
2023-05-19T08:05:54.250Z,22.12
2023-05-19T08:08:58.396Z,22.30
2023-05-19T08:12:06.276Z,22.41
2023-05-19T08:15:13.166Z,22.56
2023-05-19T08:18:22.098Z,22.46
2023-05-19T08:21:26.124Z,22.36
2023-05-19T08:24:37.074Z,22.27
2023-05-19T08:27:41.127Z,22.10
2023-05-19T08:30:45.125Z,22.01
2023-05-19T08:33:48.934Z,21.84
2023-05-19T08:36:54.300Z,21.69
2023-05-19T08:40:01.635Z,21.61
2023-05-19T08:43:07.067Z,21.59
2023-05-19T08:46:15.292Z,21.64
2023-05-19T08:49:25.805Z,21.52
2023-05-19T08:52:52.809Z,21.64
2023-05-19T08:56:10.879Z,21.59
2023-05-19T08:59:18.597Z,21.39
2023-05-19T09:02:24.647Z,21.15
2023-05-19T09:05:29.651Z,21.40
2023-05-19T09:08:34.700Z,21.21
2023-05-19T09:11:39.165Z,21.20
2023-05-19T09:14:43.601Z,21.18
2023-05-19T09:17:50.781Z,21.31
2023-05-19T09:21:05.672Z,21.26
2023-05-19T09:24:11.133Z,21.45
2023-05-19T09:27:26.037Z,21.53
2023-05-19T09:30:30.110Z,21.41
2023-05-19T09:33:42.954Z,21.30
2023-05-19T09:36:54.193Z,21.22
2023-05-19T09:39:59.320Z,20.98
2023-05-19T09:43:06.948Z,21.14
2023-05-19T09:46:14.471Z,21.01
2023-05-19T09:49:23.673Z,20.80
2023-05-19T09:52:30.954Z,20.18
2023-05-19T09:55:36.279Z,19.78
2023-05-19T09:58:42.892Z,19.50
2023-05-19T10:01:51.017Z,19.58
2023-05-19T10:04:56.372Z,19.32
2023-05-19T10:08:03.747Z,19.51
2023-05-19T10:11:08.394Z,19.22
2023-05-19T10:14:13.581Z,19.22
2023-05-19T10:17:17.821Z,19.07
2023-05-19T10:20:21.761Z,19.00
2023-05-19T10:23:26.522Z,18.60
2023-05-19T10:26:32.017Z,18.55
2023-05-19T10:29:50.240Z,18.52
2023-05-19T10:32:58.031Z,18.24
2023-05-19T10:36:25.672Z,18.06
2023-05-19T10:39:34.115Z,17.83
2023-05-19T10:42:55.293Z,17.65
2023-05-19T10:45:59.551Z,17.66
2023-05-19T10:49:03.428Z,17.65
2023-05-19T10:52:27.831Z,17.49
2023-05-19T10:55:49.243Z,16.90
2023-05-19T10:58:53.933Z,16.81
2023-05-19T11:01:58.077Z,16.67
2023-05-19T11:05:17.450Z,16.41
2023-05-19T11:08:36.139Z,16.35
2023-05-19T11:11:53.944Z,16.29
2023-05-19T11:15:06.128Z,15.96
2023-05-19T11:18:16.919Z,15.92
2023-05-19T11:21:23.128Z,15.97
2023-05-19T11:24:46.967Z,15.88
2023-05-19T11:27:53.646Z,15.80
2023-05-19T11:31:00.710Z,15.80
2023-05-19T11:34:08.069Z,15.73
2023-05-19T11:37:13.125Z,15.42
2023-05-19T11:40:17.945Z,15.37
2023-05-19T11:43:25.507Z,15.58
2023-05-19T11:46:33.476Z,15.71
2023-05-19T11:49:37.530Z,15.82
2023-05-19T11:52:50.685Z,15.45
2023-05-19T11:55:55.323Z,15.27
2023-05-19T11:58:59.342Z,15.51
2023-05-19T12:02:05.065Z,15.41
2023-05-19T12:05:18.892Z,14.97
2023-05-19T12:08:23.688Z,14.60
2023-05-19T12:11:32.768Z,14.85
2023-05-19T12:14:37.069Z,14.67
2023-05-19T12:17:43.045Z,14.80
2023-05-19T12:20:47.696Z,14.64
2023-05-19T12:23:52.046Z,14.48
2023-05-19T12:27:08.131Z,14.44
2023-05-19T12:30:13.773Z,14.48
2023-05-19T12:33:18.020Z,14.12
2023-05-19T12:36:24.680Z,14.19
2023-05-19T12:39:29.657Z,14.31
2023-05-19T12:42:34.425Z,14.37
2023-05-19T12:45:40.600Z,14.24
2023-05-19T12:48:45.942Z,13.87
2023-05-19T12:51:56.233Z,13.80
2023-05-19T12:55:06.603Z,13.82
2023-05-19T12:58:12.929Z,12.96
2023-05-19T13:01:20.438Z,13.87
2023-05-19T13:04:28.469Z,13.85
2023-05-19T13:07:32.666Z,13.59
2023-05-19T13:10:40.605Z,13.57
2023-05-19T13:13:45.084Z,13.22
2023-05-19T13:16:49.130Z,12.65
2023-05-19T13:19:53.650Z,12.76
2023-05-19T13:22:58.154Z,12.62
2023-05-19T13:26:05.779Z,12.32
2023-05-19T13:29:10.625Z,12.37
2023-05-19T13:32:14.939Z,12.44
2023-05-19T13:35:19.665Z,12.37
2023-05-19T13:38:26.598Z,12.22
2023-05-19T13:41:30.671Z,12.33
2023-05-19T13:44:37.273Z,12.21
2023-05-19T13:47:41.381Z,12.37
2023-05-19T13:50:45.541Z,12.13
2023-05-19T13:53:51.291Z,12.08
2023-05-19T13:56:55.496Z,12.00
2023-05-19T14:00:02.617Z,12.13
2023-05-19T14:03:20.409Z,12.07
2023-05-19T14:06:24.373Z,12.21
2023-05-19T14:09:29.952Z,12.07
2023-05-19T14:12:44.770Z,11.93
2023-05-19T14:15:51.619Z,12.05
2023-05-19T14:18:55.719Z,12.04
2023-05-19T14:22:00.009Z,11.70
2023-05-19T14:25:04.711Z,11.54
2023-05-19T14:28:11.459Z,11.60
2023-05-19T14:31:15.924Z,11.53
2023-05-19T14:34:21.932Z,11.50
2023-05-19T14:37:29.668Z,11.14
2023-05-19T14:40:34.067Z,11.11
2023-05-19T14:43:38.257Z,10.22
2023-05-19T14:46:42.380Z,10.76
2023-05-19T14:49:46.348Z,10.87
2023-05-19T14:52:53.602Z,10.85
2023-05-19T14:55:57.606Z,10.87
2023-05-19T14:59:01.706Z,10.94
2023-05-19T15:02:06.651Z,10.95
2023-05-19T15:05:12.538Z,10.85
2023-05-19T15:08:16.739Z,10.60
2023-05-19T15:11:20.836Z,10.94
2023-05-19T15:14:25.018Z,10.55
2023-05-19T15:17:29.407Z,10.36
2023-05-19T15:20:33.640Z,10.37
2023-05-19T15:23:38.930Z,10.04
2023-05-19T15:26:43.679Z,10.23
2023-05-19T15:29:48.060Z,10.05
2023-05-19T15:32:52.114Z,9.98
2023-05-19T15:35:56.299Z,9.73
2023-05-19T15:39:00.260Z,9.99
2023-05-19T15:42:04.331Z,9.99
2023-05-19T15:45:09.135Z,10.05
2023-05-19T15:48:13.317Z,10.03
2023-05-19T15:51:17.300Z,9.85
2023-05-19T15:54:21.496Z,9.23
2023-05-19T15:57:25.921Z,9.75
2023-05-19T16:00:30.092Z,9.69
2023-05-19T16:03:34.662Z,9.66
2023-05-19T16:06:39.520Z,9.52
2023-05-19T16:09:43.833Z,9.66
2023-05-19T16:12:48.014Z,9.68
2023-05-19T16:15:51.994Z,9.79
2023-05-19T16:18:56.137Z,9.70
2023-05-19T16:22:00.078Z,9.70
2023-05-19T16:25:10.699Z,9.79
2023-05-19T16:28:15.520Z,9.62
2023-05-19T16:31:19.801Z,9.60
2023-05-19T16:34:24.448Z,9.16
2023-05-19T16:37:28.568Z,9.54
2023-05-19T16:40:32.818Z,9.56
2023-05-19T16:43:37.292Z,9.29
2023-05-19T16:46:41.674Z,9.52
2023-05-19T16:49:45.921Z,9.81
2023-05-19T16:52:49.798Z,9.89
2023-05-19T16:55:53.866Z,9.89
2023-05-19T16:58:57.943Z,9.80
2023-05-19T17:02:02.256Z,9.70
2023-05-19T17:05:07.050Z,9.61
2023-05-19T17:08:13.350Z,9.69
2023-05-19T17:11:18.013Z,9.91
2023-05-19T17:14:22.670Z,10.05
2023-05-19T17:17:26.891Z,9.93
2023-05-19T17:20:31.241Z,9.95
2023-05-19T17:23:35.304Z,9.79
2023-05-19T17:26:39.761Z,9.99
2023-05-19T17:29:43.871Z,9.97
2023-05-19T17:32:48.592Z,9.84
2023-05-19T17:35:52.678Z,9.80
2023-05-19T17:38:56.887Z,9.64
2023-05-19T17:42:00.829Z,9.53
2023-05-19T17:45:08.370Z,9.69
2023-05-19T17:48:12.375Z,9.44
2023-05-19T17:51:16.651Z,9.18
2023-05-19T17:54:21.103Z,9.00
2023-05-19T17:57:27.444Z,8.49
2023-05-19T18:00:31.886Z,8.54
2023-05-19T18:03:36.668Z,8.49
2023-05-19T18:06:45.091Z,9.03
2023-05-19T18:09:52.634Z,9.16
2023-05-19T18:13:01.228Z,9.22
2023-05-19T18:16:05.562Z,9.11
2023-05-19T18:19:09.621Z,9.30
2023-05-19T18:22:15.732Z,9.29
2023-05-19T18:25:20.892Z,9.49
2023-05-19T18:28:25.486Z,9.49
2023-05-19T18:31:30.481Z,9.14
2023-05-19T18:34:35.208Z,9.12
2023-05-19T18:37:39.426Z,9.24
2023-05-19T18:40:46.804Z,9.17
2023-05-19T18:43:51.079Z,9.09
2023-05-19T18:46:55.799Z,9.14
2023-05-19T18:49:59.801Z,9.03
2023-05-19T18:53:04.553Z,8.91
2023-05-19T18:56:13.193Z,9.11
2023-05-19T18:59:17.456Z,9.11
2023-05-19T19:02:21.408Z,8.85
2023-05-19T19:05:25.525Z,8.88
2023-05-19T19:08:29.446Z,8.77
2023-05-19T19:11:34.045Z,8.94
2023-05-19T19:14:49.776Z,8.98
2023-05-19T19:17:54.497Z,8.87
2023-05-19T19:21:00.385Z,8.72
2023-05-19T19:24:04.201Z,8.73
2023-05-19T19:27:08.137Z,8.94
2023-05-19T19:30:12.535Z,8.99
2023-05-19T19:33:16.620Z,9.00
2023-05-19T19:36:21.419Z,9.00
2023-05-19T19:39:25.684Z,9.15
2023-05-19T19:42:32.691Z,9.33
2023-05-19T19:45:39.764Z,9.68
2023-05-19T19:48:44.349Z,9.39
2023-05-19T19:51:48.860Z,9.39
2023-05-19T19:54:53.067Z,9.71
2023-05-19T19:57:57.321Z,9.73
2023-05-19T20:01:03.426Z,9.53
2023-05-19T20:04:07.887Z,9.41
2023-05-19T20:07:12.225Z,10.05
2023-05-19T20:10:16.614Z,10.02
2023-05-19T20:13:21.612Z,10.05
2023-05-19T20:16:49.572Z,10.24
2023-05-19T20:19:55.633Z,10.14
2023-05-19T20:23:06.368Z,10.15
2023-05-19T20:26:13.857Z,10.45
2023-05-19T20:29:38.414Z,10.65
2023-05-19T20:33:06.891Z,10.93
2023-05-19T20:36:22.482Z,11.11
2023-05-19T20:39:29.170Z,11.02
2023-05-19T20:42:41.095Z,11.19
2023-05-19T20:45:48.356Z,11.32
2023-05-19T20:49:06.470Z,11.49
2023-05-19T20:52:13.541Z,11.52
2023-05-19T20:55:21.586Z,11.68
2023-05-19T20:58:34.950Z,11.84
2023-05-19T21:01:58.843Z,11.73
2023-05-19T21:05:20.952Z,11.76
2023-05-19T21:08:28.603Z,11.69
2023-05-19T21:11:38.087Z,11.94
2023-05-19T21:14:46.580Z,11.97
2023-05-19T21:17:50.957Z,12.23
2023-05-19T21:20:55.486Z,12.35
2023-05-19T21:24:00.366Z,12.28
2023-05-19T21:27:04.512Z,12.23
2023-05-19T21:30:10.292Z,12.47
2023-05-19T21:33:14.256Z,12.69
2023-05-19T21:36:19.218Z,12.88
2023-05-19T21:39:23.148Z,12.96
2023-05-19T21:42:27.542Z,13.09
2023-05-19T21:45:31.612Z,12.92
2023-05-19T21:48:35.720Z,13.34
2023-05-19T21:51:39.596Z,13.42
2023-05-19T21:54:43.695Z,13.58
2023-05-19T21:57:47.695Z,13.70
2023-05-19T22:00:53.530Z,13.73
2023-05-19T22:03:57.502Z,13.97
2023-05-19T22:07:01.876Z,14.03
2023-05-19T22:10:06.285Z,14.02
2023-05-19T22:13:10.300Z,14.02
2023-05-19T22:16:14.430Z,14.30
2023-05-19T22:19:56.176Z,14.51
2023-05-19T22:22:53.691Z,13.94
2023-05-19T22:25:58.242Z,14.48
2023-05-19T22:29:03.663Z,14.53
2023-05-19T22:32:12.616Z,14.89
2023-05-19T22:35:16.699Z,14.66
2023-05-19T22:38:20.745Z,14.73
2023-05-19T22:41:25.077Z,14.38
2023-05-19T22:44:29.492Z,14.24
2023-05-19T22:47:33.417Z,14.00
2023-05-19T22:50:37.857Z,14.01
2023-05-19T22:53:43.325Z,14.01
2023-05-19T22:56:49.566Z,13.93
2023-05-19T22:59:53.952Z,13.99
2023-05-19T23:02:59.738Z,13.94
2023-05-19T23:06:03.689Z,13.91
2023-05-19T23:09:07.758Z,13.97
2023-05-19T23:12:11.630Z,13.98
2023-05-19T23:15:15.668Z,13.97
2023-05-19T23:18:20.553Z,13.97
2023-05-19T23:21:24.857Z,14.02
2023-05-19T23:24:28.808Z,14.19
2023-05-19T23:27:32.922Z,14.31
2023-05-19T23:30:38.723Z,14.47
2023-05-19T23:33:42.816Z,14.36
2023-05-19T23:36:46.790Z,14.54
2023-05-19T23:39:50.889Z,14.53
2023-05-19T23:42:54.748Z,14.48
2023-05-19T23:45:59.147Z,14.56
2023-05-19T23:49:03.161Z,14.50
2023-05-19T23:52:07.552Z,14.62
2023-05-19T23:55:13.726Z,14.68
2023-05-19T23:58:17.890Z,14.71
